sensor_id;sensor_type;location;lat;lon;timestamp;P1;durP1;ratioP1;P2;durP2;ratioP2
39982;SDS011;25670;44.782;10.356;2023-04-24T00:01:16;2.78;;;2.05;;
39982;SDS011;25670;44.782;10.356;2023-04-24T00:03:42;2.42;;;2.22;;
39982;SDS011;25670;44.782;10.356;2023-04-24T00:06:08;5.68;;;2.33;;
39982;SDS011;25670;44.782;10.356;2023-04-24T00:08:35;3.10;;;2.28;;
39982;SDS011;25670;44.782;10.356;2023-04-24T00:11:01;3.22;;;2.60;;
39982;SDS011;25670;44.782;10.356;2023-04-24T00:13:28;2.15;;;1.95;;
39982;SDS011;25670;44.782;10.356;2023-04-24T00:15:55;5.80;;;2.53;;
39982;SDS011;25670;44.782;10.356;2023-04-24T00:18:21;3.70;;;2.60;;
39982;SDS011;25670;44.782;10.356;2023-04-24T00:20:48;3.25;;;2.60;;
39982;SDS011;25670;44.782;10.356;2023-04-24T00:23:14;3.50;;;3.20;;
39982;SDS011;25670;44.782;10.356;2023-04-24T00:25:40;4.57;;;3.00;;
39982;SDS011;25670;44.782;10.356;2023-04-24T00:28:12;3.20;;;2.88;;
39982;SDS011;25670;44.782;10.356;2023-04-24T00:30:46;6.95;;;2.92;;
39982;SDS011;25670;44.782;10.356;2023-04-24T00:33:13;3.75;;;3.35;;
39982;SDS011;25670;44.782;10.356;2023-04-24T00:35:40;5.95;;;2.65;;
39982;SDS011;25670;44.782;10.356;2023-04-24T00:38:06;3.50;;;2.75;;
39982;SDS011;25670;44.782;10.356;2023-04-24T00:40:33;4.45;;;3.40;;
39982;SDS011;25670;44.782;10.356;2023-04-24T00:42:59;4.38;;;3.38;;
39982;SDS011;25670;44.782;10.356;2023-04-24T00:45:26;3.97;;;3.67;;
39982;SDS011;25670;44.782;10.356;2023-04-24T00:47:52;5.85;;;4.13;;
39982;SDS011;25670;44.782;10.356;2023-04-24T00:50:22;7.15;;;4.28;;
39982;SDS011;25670;44.782;10.356;2023-04-24T00:52:50;4.45;;;4.15;;
39982;SDS011;25670;44.782;10.356;2023-04-24T00:55:16;9.40;;;4.28;;
39982;SDS011;25670;44.782;10.356;2023-04-24T00:57:43;7.88;;;4.22;;
39982;SDS011;25670;44.782;10.356;2023-04-24T01:00:11;7.03;;;4.15;;
39982;SDS011;25670;44.782;10.356;2023-04-24T01:02:38;4.50;;;4.03;;
39982;SDS011;25670;44.782;10.356;2023-04-24T01:05:09;10.32;;;4.40;;
39982;SDS011;25670;44.782;10.356;2023-04-24T01:07:38;9.35;;;4.68;;
39982;SDS011;25670;44.782;10.356;2023-04-24T01:10:06;5.60;;;5.00;;
39982;SDS011;25670;44.782;10.356;2023-04-24T01:12:37;6.00;;;5.50;;
39982;SDS011;25670;44.782;10.356;2023-04-24T01:15:04;7.53;;;5.28;;
39982;SDS011;25670;44.782;10.356;2023-04-24T01:17:34;8.05;;;6.60;;
39982;SDS011;25670;44.782;10.356;2023-04-24T01:20:01;7.28;;;6.05;;
39982;SDS011;25670;44.782;10.356;2023-04-24T01:22:32;7.10;;;6.38;;
39982;SDS011;25670;44.782;10.356;2023-04-24T01:25:00;7.82;;;6.13;;
39982;SDS011;25670;44.782;10.356;2023-04-24T01:27:29;6.43;;;6.00;;
39982;SDS011;25670;44.782;10.356;2023-04-24T01:29:55;9.48;;;6.55;;
39982;SDS011;25670;44.782;10.356;2023-04-24T01:32:22;9.23;;;6.25;;
39982;SDS011;25670;44.782;10.356;2023-04-24T01:34:50;6.95;;;6.45;;
39982;SDS011;25670;44.782;10.356;2023-04-24T01:37:17;8.93;;;7.00;;
39982;SDS011;25670;44.782;10.356;2023-04-24T01:39:46;6.80;;;5.97;;
39982;SDS011;25670;44.782;10.356;2023-04-24T01:42:12;7.05;;;6.55;;
39982;SDS011;25670;44.782;10.356;2023-04-24T01:44:41;10.73;;;7.20;;
39982;SDS011;25670;44.782;10.356;2023-04-24T01:47:10;7.93;;;6.90;;
39982;SDS011;25670;44.782;10.356;2023-04-24T01:49:40;8.13;;;7.30;;
39982;SDS011;25670;44.782;10.356;2023-04-24T01:52:12;7.90;;;7.13;;
39982;SDS011;25670;44.782;10.356;2023-04-24T01:54:38;8.50;;;7.75;;
39982;SDS011;25670;44.782;10.356;2023-04-24T01:57:05;15.57;;;7.68;;
39982;SDS011;25670;44.782;10.356;2023-04-24T01:59:32;8.27;;;7.43;;
39982;SDS011;25670;44.782;10.356;2023-04-24T02:02:00;8.90;;;7.35;;
39982;SDS011;25670;44.782;10.356;2023-04-24T02:04:26;7.30;;;6.70;;
39982;SDS011;25670;44.782;10.356;2023-04-24T02:06:52;12.07;;;7.88;;
39982;SDS011;25670;44.782;10.356;2023-04-24T02:09:18;8.10;;;7.50;;
39982;SDS011;25670;44.782;10.356;2023-04-24T02:11:45;8.50;;;7.13;;
39982;SDS011;25670;44.782;10.356;2023-04-24T02:14:11;8.63;;;7.85;;
39982;SDS011;25670;44.782;10.356;2023-04-24T02:16:39;8.02;;;7.32;;
39982;SDS011;25670;44.782;10.356;2023-04-24T02:19:05;8.23;;;7.45;;
39982;SDS011;25670;44.782;10.356;2023-04-24T02:21:32;8.00;;;7.50;;
39982;SDS011;25670;44.782;10.356;2023-04-24T02:23:58;9.15;;;7.35;;
39982;SDS011;25670;44.782;10.356;2023-04-24T02:26:24;7.82;;;7.13;;
39982;SDS011;25670;44.782;10.356;2023-04-24T02:28:51;7.85;;;7.22;;
39982;SDS011;25670;44.782;10.356;2023-04-24T02:31:20;12.95;;;8.40;;
39982;SDS011;25670;44.782;10.356;2023-04-24T02:33:47;8.73;;;7.90;;
39982;SDS011;25670;44.782;10.356;2023-04-24T02:36:13;10.27;;;8.45;;
39982;SDS011;25670;44.782;10.356;2023-04-24T02:38:40;11.10;;;9.07;;
39982;SDS011;25670;44.782;10.356;2023-04-24T02:41:06;9.75;;;8.60;;
39982;SDS011;25670;44.782;10.356;2023-04-24T02:43:32;9.35;;;8.40;;
39982;SDS011;25670;44.782;10.356;2023-04-24T02:45:59;11.05;;;8.85;;
39982;SDS011;25670;44.782;10.356;2023-04-24T02:48:25;12.15;;;9.18;;
39982;SDS011;25670;44.782;10.356;2023-04-24T02:50:52;11.65;;;8.63;;
39982;SDS011;25670;44.782;10.356;2023-04-24T02:53:18;11.75;;;8.40;;
39982;SDS011;25670;44.782;10.356;2023-04-24T02:55:44;8.82;;;8.05;;
39982;SDS011;25670;44.782;10.356;2023-04-24T02:58:11;8.35;;;7.38;;
39982;SDS011;25670;44.782;10.356;2023-04-24T03:00:38;14.27;;;8.50;;
39982;SDS011;25670;44.782;10.356;2023-04-24T03:03:05;10.13;;;8.98;;
39982;SDS011;25670;44.782;10.356;2023-04-24T03:05:32;12.10;;;8.63;;
39982;SDS011;25670;44.782;10.356;2023-04-24T03:07:59;9.35;;;7.97;;
39982;SDS011;25670;44.782;10.356;2023-04-24T03:10:26;9.50;;;8.52;;
39982;SDS011;25670;44.782;10.356;2023-04-24T03:12:52;10.93;;;7.97;;
39982;SDS011;25670;44.782;10.356;2023-04-24T03:15:18;9.13;;;8.18;;
39982;SDS011;25670;44.782;10.356;2023-04-24T03:17:44;10.13;;;8.48;;
39982;SDS011;25670;44.782;10.356;2023-04-24T03:20:11;8.13;;;7.45;;
39982;SDS011;25670;44.782;10.356;2023-04-24T03:22:38;11.50;;;8.43;;
39982;SDS011;25670;44.782;10.356;2023-04-24T03:25:06;7.95;;;7.45;;
39982;SDS011;25670;44.782;10.356;2023-04-24T03:27:35;8.25;;;7.07;;
39982;SDS011;25670;44.782;10.356;2023-04-24T03:30:08;8.68;;;8.10;;
39982;SDS011;25670;44.782;10.356;2023-04-24T03:32:50;9.45;;;7.97;;
39982;SDS011;25670;44.782;10.356;2023-04-24T03:35:21;8.23;;;7.72;;
39982;SDS011;25670;44.782;10.356;2023-04-24T03:37:48;8.48;;;7.72;;
39982;SDS011;25670;44.782;10.356;2023-04-24T03:40:33;8.80;;;8.02;;
39982;SDS011;25670;44.782;10.356;2023-04-24T03:43:01;8.95;;;8.30;;
39982;SDS011;25670;44.782;10.356;2023-04-24T03:45:28;9.20;;;8.32;;
39982;SDS011;25670;44.782;10.356;2023-04-24T03:47:56;8.57;;;7.35;;
39982;SDS011;25670;44.782;10.356;2023-04-24T03:50:22;20.30;;;8.70;;
39982;SDS011;25670;44.782;10.356;2023-04-24T03:52:50;10.77;;;8.85;;
39982;SDS011;25670;44.782;10.356;2023-04-24T03:55:28;9.32;;;8.45;;
39982;SDS011;25670;44.782;10.356;2023-04-24T03:57:54;14.43;;;8.52;;
39982;SDS011;25670;44.782;10.356;2023-04-24T04:00:21;9.35;;;8.68;;
39982;SDS011;25670;44.782;10.356;2023-04-24T04:02:57;10.00;;;9.00;;
39982;SDS011;25670;44.782;10.356;2023-04-24T04:05:23;10.18;;;9.30;;
39982;SDS011;25670;44.782;10.356;2023-04-24T04:07:50;11.07;;;9.93;;
39982;SDS011;25670;44.782;10.356;2023-04-24T04:10:16;11.63;;;9.10;;
39982;SDS011;25670;44.782;10.356;2023-04-24T04:12:42;9.68;;;8.98;;
39982;SDS011;25670;44.782;10.356;2023-04-24T04:15:09;10.45;;;9.43;;
39982;SDS011;25670;44.782;10.356;2023-04-24T04:17:35;11.00;;;8.95;;
39982;SDS011;25670;44.782;10.356;2023-04-24T04:20:05;10.15;;;9.13;;
39982;SDS011;25670;44.782;10.356;2023-04-24T04:22:37;9.70;;;9.10;;
39982;SDS011;25670;44.782;10.356;2023-04-24T04:25:07;10.30;;;9.50;;
39982;SDS011;25670;44.782;10.356;2023-04-24T04:27:34;11.90;;;10.35;;
39982;SDS011;25670;44.782;10.356;2023-04-24T04:30:07;11.90;;;10.70;;
39982;SDS011;25670;44.782;10.356;2023-04-24T04:32:44;13.38;;;11.93;;
39982;SDS011;25670;44.782;10.356;2023-04-24T04:35:10;13.07;;;11.32;;
39982;SDS011;25670;44.782;10.356;2023-04-24T04:37:37;20.08;;;12.55;;
39982;SDS011;25670;44.782;10.356;2023-04-24T04:42:50;21.67;;;12.45;;
39982;SDS011;25670;44.782;10.356;2023-04-24T04:45:19;14.18;;;12.70;;
39982;SDS011;25670;44.782;10.356;2023-04-24T04:48:09;13.18;;;12.10;;
39982;SDS011;25670;44.782;10.356;2023-04-24T04:50:38;25.55;;;13.45;;
39982;SDS011;25670;44.782;10.356;2023-04-24T04:53:07;16.63;;;13.48;;
39982;SDS011;25670;44.782;10.356;2023-04-24T04:55:37;14.70;;;12.85;;
39982;SDS011;25670;44.782;10.356;2023-04-24T04:58:23;13.93;;;12.45;;
39982;SDS011;25670;44.782;10.356;2023-04-24T05:00:54;18.38;;;13.35;;
39982;SDS011;25670;44.782;10.356;2023-04-24T05:03:26;13.52;;;12.43;;
39982;SDS011;25670;44.782;10.356;2023-04-24T05:05:58;20.55;;;13.13;;
39982;SDS011;25670;44.782;10.356;2023-04-24T05:08:25;16.17;;;13.05;;
39982;SDS011;25670;44.782;10.356;2023-04-24T05:10:52;14.05;;;12.90;;
39982;SDS011;25670;44.782;10.356;2023-04-24T05:13:18;20.35;;;14.07;;
39982;SDS011;25670;44.782;10.356;2023-04-24T05:15:46;24.40;;;15.13;;
39982;SDS011;25670;44.782;10.356;2023-04-24T05:18:14;14.55;;;13.30;;
39982;SDS011;25670;44.782;10.356;2023-04-24T05:20:41;20.10;;;13.65;;
39982;SDS011;25670;44.782;10.356;2023-04-24T05:23:09;15.38;;;13.80;;
39982;SDS011;25670;44.782;10.356;2023-04-24T05:25:39;14.50;;;12.48;;
39982;SDS011;25670;44.782;10.356;2023-04-24T05:28:10;15.23;;;13.07;;
39982;SDS011;25670;44.782;10.356;2023-04-24T05:30:36;14.45;;;12.52;;
39982;SDS011;25670;44.782;10.356;2023-04-24T05:33:02;13.00;;;11.80;;
39982;SDS011;25670;44.782;10.356;2023-04-24T05:35:33;14.70;;;11.95;;
39982;SDS011;25670;44.782;10.356;2023-04-24T05:38:01;20.73;;;12.60;;
39982;SDS011;25670;44.782;10.356;2023-04-24T05:40:27;19.10;;;13.75;;
39982;SDS011;25670;44.782;10.356;2023-04-24T05:42:53;17.05;;;13.05;;
39982;SDS011;25670;44.782;10.356;2023-04-24T05:45:20;15.07;;;13.20;;
39982;SDS011;25670;44.782;10.356;2023-04-24T05:47:46;16.98;;;13.70;;
39982;SDS011;25670;44.782;10.356;2023-04-24T05:50:13;21.83;;;14.18;;
39982;SDS011;25670;44.782;10.356;2023-04-24T05:52:39;15.20;;;13.77;;
39982;SDS011;25670;44.782;10.356;2023-04-24T05:55:17;16.08;;;13.55;;
39982;SDS011;25670;44.782;10.356;2023-04-24T05:57:44;16.58;;;13.65;;
39982;SDS011;25670;44.782;10.356;2023-04-24T06:00:11;20.55;;;13.35;;
39982;SDS011;25670;44.782;10.356;2023-04-24T06:02:44;14.32;;;12.82;;
39982;SDS011;25670;44.782;10.356;2023-04-24T06:05:13;15.52;;;13.80;;
39982;SDS011;25670;44.782;10.356;2023-04-24T06:07:40;17.85;;;13.85;;
39982;SDS011;25670;44.782;10.356;2023-04-24T06:10:08;14.30;;;12.95;;
39982;SDS011;25670;44.782;10.356;2023-04-24T06:12:40;14.27;;;12.82;;
39982;SDS011;25670;44.782;10.356;2023-04-24T06:15:12;17.33;;;13.15;;
39982;SDS011;25670;44.782;10.356;2023-04-24T06:18:01;15.48;;;12.38;;
39982;SDS011;25670;44.782;10.356;2023-04-24T06:20:28;12.75;;;11.68;;
39982;SDS011;25670;44.782;10.356;2023-04-24T06:22:54;14.77;;;12.43;;
39982;SDS011;25670;44.782;10.356;2023-04-24T06:25:20;13.68;;;11.88;;
39982;SDS011;25670;44.782;10.356;2023-04-24T06:27:47;12.35;;;11.18;;
39982;SDS011;25670;44.782;10.356;2023-04-24T06:30:13;12.77;;;11.55;;
39982;SDS011;25670;44.782;10.356;2023-04-24T06:32:39;13.48;;;12.18;;
39982;SDS011;25670;44.782;10.356;2023-04-24T06:35:06;13.65;;;11.45;;
39982;SDS011;25670;44.782;10.356;2023-04-24T06:37:33;14.30;;;12.70;;
39982;SDS011;25670;44.782;10.356;2023-04-24T06:39:59;13.60;;;12.50;;
39982;SDS011;25670;44.782;10.356;2023-04-24T06:42:26;21.52;;;12.10;;
39982;SDS011;25670;44.782;10.356;2023-04-24T06:44:52;14.57;;;12.18;;
39982;SDS011;25670;44.782;10.356;2023-04-24T06:47:18;13.35;;;11.75;;
39982;SDS011;25670;44.782;10.356;2023-04-24T06:49:45;13.82;;;12.43;;
39982;SDS011;25670;44.782;10.356;2023-04-24T06:52:11;15.45;;;14.15;;
39982;SDS011;25670;44.782;10.356;2023-04-24T06:54:38;15.57;;;13.35;;
39982;SDS011;25670;44.782;10.356;2023-04-24T06:57:04;15.40;;;12.38;;
39982;SDS011;25670;44.782;10.356;2023-04-24T06:59:31;14.20;;;12.90;;
39982;SDS011;25670;44.782;10.356;2023-04-24T07:01:57;20.33;;;11.20;;
39982;SDS011;25670;44.782;10.356;2023-04-24T07:04:24;10.60;;;9.77;;
39982;SDS011;25670;44.782;10.356;2023-04-24T07:06:50;11.27;;;10.23;;
39982;SDS011;25670;44.782;10.356;2023-04-24T07:09:18;9.85;;;8.60;;
39982;SDS011;25670;44.782;10.356;2023-04-24T07:11:44;14.10;;;10.23;;
39982;SDS011;25670;44.782;10.356;2023-04-24T07:14:11;10.73;;;9.75;;
39982;SDS011;25670;44.782;10.356;2023-04-24T07:16:37;9.18;;;8.48;;
39982;SDS011;25670;44.782;10.356;2023-04-24T07:19:04;10.30;;;8.95;;
39982;SDS011;25670;44.782;10.356;2023-04-24T07:21:31;10.63;;;9.43;;
39982;SDS011;25670;44.782;10.356;2023-04-24T07:23:58;9.18;;;8.57;;
39982;SDS011;25670;44.782;10.356;2023-04-24T07:26:29;8.52;;;7.68;;
39982;SDS011;25670;44.782;10.356;2023-04-24T07:28:56;9.88;;;8.15;;
39982;SDS011;25670;44.782;10.356;2023-04-24T07:31:23;9.02;;;8.13;;
39982;SDS011;25670;44.782;10.356;2023-04-24T07:33:49;14.07;;;8.48;;
39982;SDS011;25670;44.782;10.356;2023-04-24T07:36:16;9.55;;;8.65;;
39982;SDS011;25670;44.782;10.356;2023-04-24T07:38:47;8.98;;;8.27;;
39982;SDS011;25670;44.782;10.356;2023-04-24T07:41:14;9.05;;;8.15;;
39982;SDS011;25670;44.782;10.356;2023-04-24T07:43:41;8.35;;;7.85;;
39982;SDS011;25670;44.782;10.356;2023-04-24T07:46:08;8.50;;;7.80;;
39982;SDS011;25670;44.782;10.356;2023-04-24T07:48:34;8.77;;;8.05;;
39982;SDS011;25670;44.782;10.356;2023-04-24T07:51:02;8.35;;;7.63;;
39982;SDS011;25670;44.782;10.356;2023-04-24T07:53:29;7.78;;;7.07;;
39982;SDS011;25670;44.782;10.356;2023-04-24T07:55:55;7.72;;;6.95;;
39982;SDS011;25670;44.782;10.356;2023-04-24T07:58:22;7.00;;;6.10;;
39982;SDS011;25670;44.782;10.356;2023-04-24T08:00:48;7.50;;;6.75;;
39982;SDS011;25670;44.782;10.356;2023-04-24T08:03:15;6.75;;;6.18;;
39982;SDS011;25670;44.782;10.356;2023-04-24T08:05:44;6.35;;;5.80;;
39982;SDS011;25670;44.782;10.356;2023-04-24T08:08:10;13.20;;;6.65;;
39982;SDS011;25670;44.782;10.356;2023-04-24T08:10:37;8.25;;;6.50;;
39982;SDS011;25670;44.782;10.356;2023-04-24T08:13:03;8.13;;;6.40;;
39982;SDS011;25670;44.782;10.356;2023-04-24T08:15:30;6.65;;;6.10;;
39982;SDS011;25670;44.782;10.356;2023-04-24T08:20:41;8.00;;;5.93;;
39982;SDS011;25670;44.782;10.356;2023-04-24T08:23:08;9.55;;;5.28;;
39982;SDS011;25670;44.782;10.356;2023-04-24T08:25:34;5.07;;;4.75;;
39982;SDS011;25670;44.782;10.356;2023-04-24T08:28:05;6.30;;;5.75;;
39982;SDS011;25670;44.782;10.356;2023-04-24T08:30:34;6.03;;;5.50;;
39982;SDS011;25670;44.782;10.356;2023-04-24T08:33:00;9.95;;;6.00;;
39982;SDS011;25670;44.782;10.356;2023-04-24T08:35:27;6.57;;;5.95;;
39982;SDS011;25670;44.782;10.356;2023-04-24T08:37:53;5.95;;;5.35;;
39982;SDS011;25670;44.782;10.356;2023-04-24T08:40:21;10.77;;;4.80;;
39982;SDS011;25670;44.782;10.356;2023-04-24T08:42:52;5.45;;;4.90;;
39982;SDS011;25670;44.782;10.356;2023-04-24T08:45:22;9.82;;;4.78;;
39982;SDS011;25670;44.782;10.356;2023-04-24T08:47:49;7.97;;;4.63;;
39982;SDS011;25670;44.782;10.356;2023-04-24T08:50:17;5.15;;;4.05;;
39982;SDS011;25670;44.782;10.356;2023-04-24T08:52:44;6.78;;;4.15;;
39982;SDS011;25670;44.782;10.356;2023-04-24T08:55:11;5.22;;;4.82;;
39982;SDS011;25670;44.782;10.356;2023-04-24T08:57:39;6.43;;;5.35;;
39982;SDS011;25670;44.782;10.356;2023-04-24T09:00:06;7.20;;;5.57;;
39982;SDS011;25670;44.782;10.356;2023-04-24T09:02:33;6.13;;;5.57;;
39982;SDS011;25670;44.782;10.356;2023-04-24T09:05:00;6.38;;;5.75;;
39982;SDS011;25670;44.782;10.356;2023-04-24T09:07:28;6.50;;;5.93;;
39982;SDS011;25670;44.782;10.356;2023-04-24T09:09:58;6.43;;;5.80;;
39982;SDS011;25670;44.782;10.356;2023-04-24T09:12:28;7.18;;;5.47;;
39982;SDS011;25670;44.782;10.356;2023-04-24T09:14:55;5.85;;;5.32;;
39982;SDS011;25670;44.782;10.356;2023-04-24T09:17:22;6.32;;;5.90;;
39982;SDS011;25670;44.782;10.356;2023-04-24T09:19:55;5.43;;;5.13;;
39982;SDS011;25670;44.782;10.356;2023-04-24T09:22:22;6.05;;;5.55;;
39982;SDS011;25670;44.782;10.356;2023-04-24T09:24:48;6.53;;;5.50;;
39982;SDS011;25670;44.782;10.356;2023-04-24T09:27:29;6.78;;;6.07;;
39982;SDS011;25670;44.782;10.356;2023-04-24T09:29:55;6.82;;;6.13;;
39982;SDS011;25670;44.782;10.356;2023-04-24T09:32:23;6.55;;;5.30;;
39982;SDS011;25670;44.782;10.356;2023-04-24T09:35:09;6.20;;;5.75;;
39982;SDS011;25670;44.782;10.356;2023-04-24T09:37:36;5.07;;;4.68;;
39982;SDS011;25670;44.782;10.356;2023-04-24T09:40:11;5.68;;;5.10;;
39982;SDS011;25670;44.782;10.356;2023-04-24T09:42:55;6.60;;;6.10;;
39982;SDS011;25670;44.782;10.356;2023-04-24T09:45:28;6.70;;;6.10;;
39982;SDS011;25670;44.782;10.356;2023-04-24T09:48:02;6.53;;;5.93;;
39982;SDS011;25670;44.782;10.356;2023-04-24T09:50:30;6.30;;;5.75;;
39982;SDS011;25670;44.782;10.356;2023-04-24T09:53:03;4.95;;;3.88;;
39982;SDS011;25670;44.782;10.356;2023-04-24T09:55:31;4.55;;;3.50;;
39982;SDS011;25670;44.782;10.356;2023-04-24T09:57:58;2.42;;;2.22;;
39982;SDS011;25670;44.782;10.356;2023-04-24T10:00:31;4.70;;;3.63;;
39982;SDS011;25670;44.782;10.356;2023-04-24T10:03:04;3.80;;;3.25;;
39982;SDS011;25670;44.782;10.356;2023-04-24T10:05:35;4.18;;;3.22;;
39982;SDS011;25670;44.782;10.356;2023-04-24T10:08:03;4.40;;;4.00;;
39982;SDS011;25670;44.782;10.356;2023-04-24T10:10:31;5.43;;;4.18;;
39982;SDS011;25670;44.782;10.356;2023-04-24T10:12:59;4.10;;;3.70;;
39982;SDS011;25670;44.782;10.356;2023-04-24T10:15:26;3.38;;;3.10;;
39982;SDS011;25670;44.782;10.356;2023-04-24T10:17:53;3.40;;;3.20;;
39982;SDS011;25670;44.782;10.356;2023-04-24T10:20:23;4.68;;;4.22;;
39982;SDS011;25670;44.782;10.356;2023-04-24T10:22:51;4.25;;;3.95;;
39982;SDS011;25670;44.782;10.356;2023-04-24T10:25:24;4.80;;;4.47;;
39982;SDS011;25670;44.782;10.356;2023-04-24T10:27:52;5.15;;;4.57;;
39982;SDS011;25670;44.782;10.356;2023-04-24T10:30:23;5.45;;;5.07;;
39982;SDS011;25670;44.782;10.356;2023-04-24T10:32:49;3.95;;;3.65;;
39982;SDS011;25670;44.782;10.356;2023-04-24T10:35:15;4.97;;;4.35;;
39982;SDS011;25670;44.782;10.356;2023-04-24T10:37:48;5.60;;;5.20;;
39982;SDS011;25670;44.782;10.356;2023-04-24T10:40:33;4.78;;;4.47;;
39982;SDS011;25670;44.782;10.356;2023-04-24T10:43:04;4.88;;;4.47;;
39982;SDS011;25670;44.782;10.356;2023-04-24T10:45:33;3.85;;;3.50;;
39982;SDS011;25670;44.782;10.356;2023-04-24T10:48:04;5.07;;;3.63;;
39982;SDS011;25670;44.782;10.356;2023-04-24T10:50:43;4.60;;;4.20;;
39982;SDS011;25670;44.782;10.356;2023-04-24T10:53:28;2.75;;;2.55;;
39982;SDS011;25670;44.782;10.356;2023-04-24T10:56:00;5.55;;;3.30;;
39982;SDS011;25670;44.782;10.356;2023-04-24T10:58:35;5.70;;;4.15;;
39982;SDS011;25670;44.782;10.356;2023-04-24T11:01:06;4.60;;;4.20;;
39982;SDS011;25670;44.782;10.356;2023-04-24T11:03:33;12.00;;;5.40;;
39982;SDS011;25670;44.782;10.356;2023-04-24T11:11:07;3.47;;;3.30;;
39982;SDS011;25670;44.782;10.356;2023-04-24T11:16:21;4.03;;;3.42;;
39982;SDS011;25670;44.782;10.356;2023-04-24T11:19:04;5.50;;;5.03;;
39982;SDS011;25670;44.782;10.356;2023-04-24T11:21:41;5.90;;;5.40;;
39982;SDS011;25670;44.782;10.356;2023-04-24T11:24:21;5.68;;;5.20;;
39982;SDS011;25670;44.782;10.356;2023-04-24T11:27:15;6.57;;;4.57;;
39982;SDS011;25670;44.782;10.356;2023-04-24T11:32:27;7.25;;;4.15;;
39982;SDS011;25670;44.782;10.356;2023-04-24T11:35:01;5.68;;;5.18;;
39982;SDS011;25670;44.782;10.356;2023-04-24T11:37:39;5.50;;;5.20;;
39982;SDS011;25670;44.782;10.356;2023-04-24T11:40:15;6.93;;;5.15;;
39982;SDS011;25670;44.782;10.356;2023-04-24T11:42:43;5.38;;;5.07;;
39982;SDS011;25670;44.782;10.356;2023-04-24T11:45:15;6.35;;;5.78;;
39982;SDS011;25670;44.782;10.356;2023-04-24T11:47:42;10.52;;;6.07;;
39982;SDS011;25670;44.782;10.356;2023-04-24T11:50:10;5.55;;;5.13;;
39982;SDS011;25670;44.782;10.356;2023-04-24T11:52:38;7.82;;;6.82;;
39982;SDS011;25670;44.782;10.356;2023-04-24T11:57:44;5.43;;;5.13;;
39982;SDS011;25670;44.782;10.356;2023-04-24T12:00:19;5.57;;;4.72;;
39982;SDS011;25670;44.782;10.356;2023-04-24T12:02:49;5.07;;;4.63;;
39982;SDS011;25670;44.782;10.356;2023-04-24T12:05:23;4.75;;;4.55;;
39982;SDS011;25670;44.782;10.356;2023-04-24T12:07:53;4.95;;;4.63;;
39982;SDS011;25670;44.782;10.356;2023-04-24T12:10:20;4.60;;;4.25;;
39982;SDS011;25670;44.782;10.356;2023-04-24T12:12:47;5.45;;;5.05;;
39982;SDS011;25670;44.782;10.356;2023-04-24T12:15:16;5.07;;;4.57;;
39982;SDS011;25670;44.782;10.356;2023-04-24T12:17:43;4.97;;;4.68;;
39982;SDS011;25670;44.782;10.356;2023-04-24T12:20:13;5.55;;;3.85;;
39982;SDS011;25670;44.782;10.356;2023-04-24T12:25:16;10.18;;;4.13;;
39982;SDS011;25670;44.782;10.356;2023-04-24T12:30:59;3.70;;;3.50;;
39982;SDS011;25670;44.782;10.356;2023-04-24T12:33:26;3.90;;;3.63;;
39982;SDS011;25670;44.782;10.356;2023-04-24T12:35:53;5.85;;;3.40;;
39982;SDS011;25670;44.782;10.356;2023-04-24T12:38:35;4.60;;;4.20;;
39982;SDS011;25670;44.782;10.356;2023-04-24T12:41:07;3.85;;;3.33;;
39982;SDS011;25670;44.782;10.356;2023-04-24T12:43:51;3.75;;;3.47;;
39982;SDS011;25670;44.782;10.356;2023-04-24T12:46:18;3.30;;;3.10;;
39982;SDS011;25670;44.782;10.356;2023-04-24T12:48:50;3.60;;;3.45;;
39982;SDS011;25670;44.782;10.356;2023-04-24T12:51:17;3.60;;;3.40;;
39982;SDS011;25670;44.782;10.356;2023-04-24T12:53:43;3.75;;;3.45;;
39982;SDS011;25670;44.782;10.356;2023-04-24T12:56:10;2.88;;;2.78;;
39982;SDS011;25670;44.782;10.356;2023-04-24T12:58:51;3.17;;;2.97;;
39982;SDS011;25670;44.782;10.356;2023-04-24T13:01:20;4.15;;;3.72;;
39982;SDS011;25670;44.782;10.356;2023-04-24T13:03:47;3.05;;;2.95;;
39982;SDS011;25670;44.782;10.356;2023-04-24T13:06:13;3.58;;;3.38;;
39982;SDS011;25670;44.782;10.356;2023-04-24T13:08:40;5.05;;;2.30;;
39982;SDS011;25670;44.782;10.356;2023-04-24T13:11:06;3.20;;;3.00;;
39982;SDS011;25670;44.782;10.356;2023-04-24T13:13:33;2.97;;;2.88;;
39982;SDS011;25670;44.782;10.356;2023-04-24T13:16:02;3.83;;;2.53;;
39982;SDS011;25670;44.782;10.356;2023-04-24T13:18:29;2.75;;;2.65;;
39982;SDS011;25670;44.782;10.356;2023-04-24T13:20:55;3.30;;;3.10;;
39982;SDS011;25670;44.782;10.356;2023-04-24T13:23:22;3.22;;;2.90;;
39982;SDS011;25670;44.782;10.356;2023-04-24T13:25:48;2.75;;;2.55;;
39982;SDS011;25670;44.782;10.356;2023-04-24T13:28:15;3.20;;;2.55;;
39982;SDS011;25670;44.782;10.356;2023-04-24T13:30:44;2.90;;;2.80;;
39982;SDS011;25670;44.782;10.356;2023-04-24T13:33:11;2.38;;;2.17;;
39982;SDS011;25670;44.782;10.356;2023-04-24T13:35:37;4.65;;;2.38;;
39982;SDS011;25670;44.782;10.356;2023-04-24T13:38:04;3.15;;;2.88;;
39982;SDS011;25670;44.782;10.356;2023-04-24T13:40:32;3.92;;;2.13;;
39982;SDS011;25670;44.782;10.356;2023-04-24T13:42:58;4.22;;;2.55;;
39982;SDS011;25670;44.782;10.356;2023-04-24T13:45:26;3.45;;;3.25;;
39982;SDS011;25670;44.782;10.356;2023-04-24T13:47:52;2.78;;;2.67;;
39982;SDS011;25670;44.782;10.356;2023-04-24T13:50:19;3.10;;;2.90;;
39982;SDS011;25670;44.782;10.356;2023-04-24T13:52:46;3.90;;;2.35;;
39982;SDS011;25670;44.782;10.356;2023-04-24T13:55:12;3.13;;;2.92;;
39982;SDS011;25670;44.782;10.356;2023-04-24T13:57:39;2.88;;;2.67;;
39982;SDS011;25670;44.782;10.356;2023-04-24T14:00:06;1.90;;;0.80;;
39982;SDS011;25670;44.782;10.356;2023-04-24T14:02:35;3.17;;;1.17;;
39982;SDS011;25670;44.782;10.356;2023-04-24T14:05:02;1.95;;;1.38;;
39982;SDS011;25670;44.782;10.356;2023-04-24T14:07:29;2.83;;;1.10;;
39982;SDS011;25670;44.782;10.356;2023-04-24T14:09:56;1.25;;;1.10;;
39982;SDS011;25670;44.782;10.356;2023-04-24T14:12:31;2.17;;;1.48;;
39982;SDS011;25670;44.782;10.356;2023-04-24T14:15:09;1.73;;;1.50;;
39982;SDS011;25670;44.782;10.356;2023-04-24T14:17:45;3.83;;;1.52;;
39982;SDS011;25670;44.782;10.356;2023-04-24T14:20:12;1.05;;;0.93;;
39982;SDS011;25670;44.782;10.356;2023-04-24T14:22:38;0.85;;;0.55;;
39982;SDS011;25670;44.782;10.356;2023-04-24T14:25:04;1.48;;;0.70;;
39982;SDS011;25670;44.782;10.356;2023-04-24T14:27:32;3.92;;;1.10;;
39982;SDS011;25670;44.782;10.356;2023-04-24T14:30:00;3.08;;;0.80;;
39982;SDS011;25670;44.782;10.356;2023-04-24T14:32:26;1.02;;;0.57;;
39982;SDS011;25670;44.782;10.356;2023-04-24T14:34:53;2.65;;;0.73;;
39982;SDS011;25670;44.782;10.356;2023-04-24T14:37:20;5.05;;;0.40;;
39982;SDS011;25670;44.782;10.356;2023-04-24T14:39:46;3.03;;;0.75;;
39982;SDS011;25670;44.782;10.356;2023-04-24T14:42:13;1.80;;;0.30;;
39982;SDS011;25670;44.782;10.356;2023-04-24T14:44:40;2.42;;;0.30;;
39982;SDS011;25670;44.782;10.356;2023-04-24T14:47:06;3.30;;;0.40;;
39982;SDS011;25670;44.782;10.356;2023-04-24T14:49:33;7.32;;;0.55;;
39982;SDS011;25670;44.782;10.356;2023-04-24T14:51:59;1.38;;;0.55;;
39982;SDS011;25670;44.782;10.356;2023-04-24T14:54:26;2.78;;;0.25;;
39982;SDS011;25670;44.782;10.356;2023-04-24T14:56:52;2.25;;;0.30;;
39982;SDS011;25670;44.782;10.356;2023-04-24T14:59:18;2.28;;;0.50;;
39982;SDS011;25670;44.782;10.356;2023-04-24T15:01:51;1.75;;;0.50;;